Time;durP1;ratioP1;P1;durP2;ratioP2;P2;SDS_P1;SDS_P2;PMS_P1;PMS_P2;Temp;Humidity;BMP_temperature;BMP_pressure;BME280_temperature;BME280_humidity;BME280_pressure;Samples;Min_cycle;Max_cycle;Signal;HPM_P1;HPM_P2
2023/03/01 00:01:17;;;;;;;2.30;1.80;;;0.20;93.10;;;;;;5093540;28;20201;-68
2023/03/01 00:03:43;;;;;;;1.30;1.30;;;0.20;93.50;;;;;;5093464;28;20179;-70
2023/03/01 00:06:09;;;;;;;5.40;1.53;;;0.00;93.60;;;;;;5093472;28;20705;-69
2023/03/01 00:08:35;;;;;;;6.72;1.23;;;0.00;93.60;;;;;;5093587;28;20807;-69
2023/03/01 00:11:12;;;;;;;1.15;1.15;;;-0.10;93.70;;;;;;5093085;28;20197;-70
2023/03/01 00:13:38;;;;;;;1.77;1.30;;;0.00;94.10;;;;;;5092025;28;20237;-68
2023/03/01 00:16:05;;;;;;;0.60;0.60;;;0.10;93.80;;;;;;5093337;28;20177;-69
2023/03/01 00:18:31;;;;;;;1.75;1.70;;;-0.20;94.00;;;;;;5093214;28;20263;-69
2023/03/01 00:20:57;;;;;;;2.10;2.00;;;-0.10;94.40;;;;;;5093192;28;20199;-69
2023/03/01 00:23:24;;;;;;;0.40;0.40;;;0.00;94.30;;;;;;5093217;28;20168;-70
2023/03/01 00:25:50;;;;;;;3.03;2.92;;;0.00;94.40;;;;;;5093238;28;20212;-68
2023/03/01 00:28:17;;;;;;;0.50;0.50;;;0.20;94.20;;;;;;5093068;28;20223;-68
2023/03/01 00:30:42;;;;;;;3.45;3.15;;;0.20;94.10;;;;;;5093108;28;20641;-68
2023/03/01 00:33:08;;;;;;;1.10;0.77;;;0.30;94.10;;;;;;5093299;28;20172;-69
2023/03/01 00:35:34;;;;;;;2.30;1.63;;;0.20;93.60;;;;;;5093227;28;20161;-70
2023/03/01 00:38:00;;;;;;;0.70;0.70;;;0.20;93.60;;;;;;5092866;28;20673;-70
2023/03/01 00:40:26;;;;;;;0.60;0.60;;;0.20;93.70;;;;;;5092956;28;20430;-69
2023/03/01 00:42:52;;;;;;;2.10;2.03;;;0.10;93.80;;;;;;5092920;28;20171;-69
2023/03/01 00:45:18;;;;;;;5.20;1.70;;;0.00;94.10;;;;;;5093300;28;20261;-69
2023/03/01 00:47:43;;;;;;;1.33;1.33;;;-0.10;94.00;;;;;;5094427;28;20197;-70
2023/03/01 00:50:10;;;;;;;1.90;1.37;;;-0.10;94.20;;;;;;5096516;28;20231;-69
2023/03/01 00:52:36;;;;;;;3.63;2.92;;;-0.10;94.50;;;;;;5096777;28;20170;-69
2023/03/01 00:55:02;;;;;;;2.07;2.07;;;-0.10;94.30;;;;;;5096691;28;20525;-69
2023/03/01 00:57:28;;;;;;;1.60;1.35;;;-0.20;94.20;;;;;;5096829;28;20177;-68
2023/03/01 00:59:54;;;;;;;1.30;1.20;;;-0.20;94.30;;;;;;5096278;28;20196;-69
2023/03/01 01:02:20;;;;;;;1.73;1.73;;;-0.20;94.30;;;;;;5096771;28;20192;-69
2023/03/01 01:04:46;;;;;;;1.10;1.10;;;-0.20;94.30;;;;;;5096407;28;20170;-69
2023/03/01 01:07:12;;;;;;;3.58;3.13;;;-0.20;94.40;;;;;;5096462;28;20176;-69
2023/03/01 01:09:37;;;;;;;1.03;1.03;;;-0.30;94.60;;;;;;5096218;28;20358;-69
2023/03/01 01:12:04;;;;;;;1.80;1.00;;;-0.30;94.60;;;;;;5096467;28;20165;-69
2023/03/01 01:14:30;;;;;;;0.60;0.60;;;-0.30;94.50;;;;;;5096453;28;20170;-69
2023/03/01 01:16:56;;;;;;;2.80;2.60;;;-0.30;94.50;;;;;;5096539;28;20665;-69
2023/03/01 01:19:22;;;;;;;0.77;0.77;;;-0.40;94.70;;;;;;5096117;28;20199;-69
2023/03/01 01:21:49;;;;;;;1.83;1.67;;;-0.30;94.70;;;;;;5094894;28;20180;-68
2023/03/01 01:24:15;;;;;;;0.45;0.45;;;-0.40;94.70;;;;;;5096179;28;20175;-70
2023/03/01 01:26:41;;;;;;;1.20;1.10;;;-0.40;94.80;;;;;;5096005;28;20662;-68
2023/03/01 01:29:07;;;;;;;0.60;0.60;;;-0.50;94.80;;;;;;5095926;28;20258;-70
2023/03/01 01:31:34;;;;;;;0.60;0.60;;;-0.40;94.80;;;;;;5096220;28;20654;-69
2023/03/01 01:34:04;;;;;;;0.40;0.40;;;-0.40;94.70;;;;;;5096136;28;20177;-69
2023/03/01 01:36:31;;;;;;;0.93;0.93;;;-0.30;94.70;;;;;;5093637;28;20185;-69
2023/03/01 01:38:57;;;;;;;1.45;1.45;;;-0.40;94.60;;;;;;5095118;28;20246;-68
2023/03/01 01:41:24;;;;;;;0.30;0.30;;;-0.40;94.60;;;;;;5094170;28;20234;-69
2023/03/01 01:44:17;;;;;;;4.15;2.28;;;-0.50;94.80;;;;;;5094057;28;20170;-68
2023/03/01 01:46:46;;;;;;;1.80;1.70;;;-0.40;94.90;;;;;;5093113;28;20264;-68
2023/03/01 01:49:32;;;;;;;4.80;2.03;;;-0.50;95.00;;;;;;5095267;28;20204;-69
2023/03/01 01:52:02;;;;;;;0.82;0.82;;;-0.50;94.90;;;;;;5095789;28;20165;-69
2023/03/01 01:54:41;;;;;;;1.13;0.98;;;-0.50;94.80;;;;;;5095234;28;20165;-69
2023/03/01 01:57:13;;;;;;;1.38;1.38;;;-0.50;94.90;;;;;;5095565;28;20165;-70
2023/03/01 01:59:40;;;;;;;2.08;0.77;;;-0.60;95.00;;;;;;5094882;28;20204;-69
2023/03/01 02:02:06;;;;;;;0.68;0.68;;;-0.50;95.30;;;;;;5095438;28;20210;-69
2023/03/01 02:04:32;;;;;;;1.90;1.80;;;-0.50;95.10;;;;;;5095485;28;20199;-68
2023/03/01 02:07:04;;;;;;;0.77;0.77;;;-0.40;95.20;;;;;;5095606;28;20431;-69
2023/03/01 02:09:30;;;;;;;4.07;3.88;;;-0.50;95.00;;;;;;5095164;28;20215;-68
2023/03/01 02:11:57;;;;;;;2.85;2.58;;;-0.40;95.20;;;;;;5095448;28;20165;-68
2023/03/01 02:14:23;;;;;;;1.83;0.80;;;-0.40;95.10;;;;;;5095527;28;20177;-69
2023/03/01 02:16:49;;;;;;;10.20;2.23;;;-0.40;95.30;;;;;;5095216;28;20205;-69
2023/03/01 02:19:31;;;;;;;2.40;2.30;;;-0.40;95.30;;;;;;5094848;28;20196;-69
2023/03/01 02:22:20;;;;;;;0.95;0.95;;;-0.40;95.30;;;;;;5095518;28;20149;-68
2023/03/01 02:25:09;;;;;;;0.93;0.80;;;-0.40;95.60;;;;;;5095227;28;20228;-68
2023/03/01 02:28:13;;;;;;;0.75;0.75;;;-0.30;95.20;;;;;;5095028;28;20244;-69
2023/03/01 02:31:41;;;;;;;1.50;1.40;;;-0.10;95.10;;;;;;5086305;28;20220;-69
2023/03/01 02:33:25;;;;;;;2.85;2.75;;;-0.10;94.90;;;;;;5094698;28;20230;-69
2023/03/01 02:35:54;;;;;;;0.40;0.40;;;-0.10;94.80;;;;;;5095081;28;20574;-69
2023/03/01 02:38:21;;;;;;;0.85;0.85;;;-0.30;95.20;;;;;;5093269;28;20208;-68
2023/03/01 02:40:50;;;;;;;0.80;0.80;;;-0.30;95.60;;;;;;5094480;28;20229;-70
2023/03/01 02:43:17;;;;;;;2.15;2.03;;;-0.10;95.70;;;;;;5094830;28;20265;-69
2023/03/01 02:45:52;;;;;;;0.80;0.80;;;-0.30;95.40;;;;;;5094651;28;20184;-68
2023/03/01 02:48:19;;;;;;;1.02;0.82;;;-0.20;95.00;;;;;;5094406;28;20204;-69
2023/03/01 02:51:04;;;;;;;0.85;0.85;;;-0.30;95.20;;;;;;5094259;28;20300;-69
2023/03/01 02:53:39;;;;;;;0.82;0.82;;;-0.30;95.70;;;;;;5094685;28;20184;-69
2023/03/01 02:56:05;;;;;;;0.60;0.60;;;-0.20;95.20;;;;;;5094577;28;20171;-69
2023/03/01 02:58:30;;;;;;;10.37;1.60;;;-0.20;95.00;;;;;;5092927;28;20193;-69
2023/03/01 03:00:56;;;;;;;1.90;1.80;;;-0.20;94.90;;;;;;5094234;28;20165;-70
2023/03/01 03:03:22;;;;;;;1.33;0.90;;;-0.10;94.80;;;;;;5094253;28;20592;-69
2023/03/01 03:05:48;;;;;;;0.60;0.60;;;0.00;94.90;;;;;;5094235;28;20245;-69
2023/03/01 03:08:16;;;;;;;3.45;3.35;;;0.00;94.70;;;;;;5094220;28;20419;-69
2023/03/01 03:10:44;;;;;;;0.70;0.70;;;-0.10;94.80;;;;;;5093113;28;20287;-69
2023/03/01 03:13:13;;;;;;;1.10;1.10;;;-0.30;94.70;;;;;;5094189;28;20165;-68
2023/03/01 03:15:40;;;;;;;0.70;0.70;;;-0.10;94.80;;;;;;5094215;28;20173;-69
2023/03/01 03:18:12;;;;;;;1.77;1.63;;;-0.10;94.70;;;;;;5094068;28;20688;-69
2023/03/01 03:20:40;;;;;;;1.15;1.15;;;-0.10;94.90;;;;;;5093939;28;20170;-69
2023/03/01 03:23:06;;;;;;;2.42;2.25;;;0.10;94.70;;;;;;5093909;28;20176;-68
2023/03/01 03:25:32;;;;;;;0.40;0.40;;;0.20;94.80;;;;;;5093960;28;20261;-68
2023/03/01 03:27:58;;;;;;;2.80;1.50;;;0.30;94.60;;;;;;5093762;28;20241;-69
2023/03/01 03:30:27;;;;;;;2.95;2.85;;;0.20;94.50;;;;;;5093331;28;20198;-69
2023/03/01 03:32:53;;;;;;;0.63;0.63;;;0.20;94.60;;;;;;5093728;28;20166;-69
2023/03/01 03:35:28;;;;;;;9.60;2.87;;;0.30;94.20;;;;;;5093760;28;20254;-69
2023/03/01 03:38:03;;;;;;;3.90;2.65;;;0.30;94.10;;;;;;5093621;28;20172;-69
2023/03/01 03:40:40;;;;;;;3.40;1.88;;;0.30;94.20;;;;;;5092331;28;20222;-68
2023/03/01 03:43:09;;;;;;;1.17;1.13;;;0.30;94.50;;;;;;5093784;28;20196;-70
2023/03/01 03:45:35;;;;;;;0.43;0.43;;;0.30;94.40;;;;;;5093620;28;20170;-68
2023/03/01 03:48:03;;;;;;;2.15;1.65;;;0.40;94.60;;;;;;5093470;28;20216;-69
2023/03/01 03:50:29;;;;;;;0.57;0.57;;;0.30;94.50;;;;;;5093456;28;20254;-70
2023/03/01 03:52:55;;;;;;;0.63;0.63;;;0.40;95.00;;;;;;5093552;28;20620;-69
2023/03/01 03:55:20;;;;;;;0.90;0.90;;;0.40;94.80;;;;;;5093613;28;20399;-68
2023/03/01 03:57:51;;;;;;;1.50;1.50;;;0.40;94.90;;;;;;5093304;28;20215;-68
2023/03/01 04:00:19;;;;;;;1.02;1.02;;;0.60;95.00;;;;;;5093369;28;20657;-68
2023/03/01 04:02:46;;;;;;;1.27;1.27;;;0.50;94.30;;;;;;5093423;28;20539;-68
2023/03/01 04:05:14;;;;;;;0.98;0.98;;;0.30;94.80;;;;;;5093445;28;20178;-69
2023/03/01 04:07:41;;;;;;;0.93;0.73;;;0.10;95.00;;;;;;5093427;28;20185;-69
2023/03/01 04:10:12;;;;;;;0.45;0.45;;;0.00;95.20;;;;;;5093118;28;20228;-70
2023/03/01 04:12:38;;;;;;;2.25;2.13;;;0.10;95.20;;;;;;5093539;28;20170;-70
2023/03/01 04:15:12;;;;;;;0.80;0.67;;;0.20;95.00;;;;;;5093305;28;20245;-69
2023/03/01 04:17:41;;;;;;;4.88;3.20;;;0.00;95.20;;;;;;5093486;28;20529;-68
2023/03/01 04:20:10;;;;;;;4.60;1.38;;;-0.20;95.40;;;;;;5093034;28;20172;-69
2023/03/01 04:22:37;;;;;;;1.23;1.23;;;0.00;95.70;;;;;;5096556;28;20173;-68
2023/03/01 04:25:04;;;;;;;1.38;1.38;;;0.00;95.60;;;;;;5097434;28;20185;-69
2023/03/01 04:27:30;;;;;;;2.78;2.67;;;-0.20;96.10;;;;;;5097193;28;20178;-69
2023/03/01 04:29:55;;;;;;;2.57;2.00;;;0.00;96.30;;;;;;5097027;28;20708;-68
2023/03/01 04:32:21;;;;;;;1.20;1.20;;;0.10;96.10;;;;;;5097303;28;20168;-69
2023/03/01 04:34:47;;;;;;;4.10;2.33;;;0.00;96.00;;;;;;5097271;28;20172;-68
2023/03/01 04:37:12;;;;;;;0.40;0.40;;;0.10;95.70;;;;;;5097237;28;20188;-68
2023/03/01 04:39:45;;;;;;;2.47;2.43;;;0.00;95.70;;;;;;5096869;28;20338;-69
2023/03/01 04:42:11;;;;;;;1.42;1.33;;;-0.10;96.20;;;;;;5097072;28;20296;-69
2023/03/01 04:44:37;;;;;;;3.08;1.77;;;0.00;96.40;;;;;;5097013;28;20513;-69
2023/03/01 04:47:02;;;;;;;1.13;1.10;;;0.20;96.30;;;;;;5096941;28;20173;-68
2023/03/01 04:49:28;;;;;;;4.80;4.10;;;0.20;96.10;;;;;;5096859;28;20209;-69
2023/03/01 04:51:54;;;;;;;0.30;0.30;;;0.30;95.60;;;;;;5096956;28;20210;-68
2023/03/01 04:54:19;;;;;;;0.67;0.50;;;0.30;95.70;;;;;;5096787;28;20215;-68
2023/03/01 04:56:45;;;;;;;0.80;0.80;;;0.40;95.80;;;;;;5096781;28;20522;-68
2023/03/01 04:59:12;;;;;;;0.70;0.70;;;0.30;95.80;;;;;;5096422;28;20658;-69
2023/03/01 05:01:38;;;;;;;1.13;1.13;;;0.10;96.00;;;;;;5096758;28;20581;-68
2023/03/01 05:04:05;;;;;;;2.78;2.13;;;0.20;96.20;;;;;;5096727;28;20206;-68
2023/03/01 05:06:31;;;;;;;1.20;1.15;;;0.10;96.30;;;;;;5096879;28;20257;-68
2023/03/01 05:08:57;;;;;;;0.40;0.40;;;-0.20;96.70;;;;;;5096154;28;20202;-69
2023/03/01 05:11:23;;;;;;;2.13;1.98;;;0.00;97.30;;;;;;5096496;28;20242;-69
2023/03/01 05:13:52;;;;;;;0.63;0.63;;;0.20;96.90;;;;;;5096461;28;20256;-68
2023/03/01 05:16:19;;;;;;;4.57;4.18;;;0.40;96.30;;;;;;5096482;28;20163;-70
2023/03/01 05:18:45;;;;;;;5.35;1.80;;;0.50;96.00;;;;;;5096164;28;20197;-69
2023/03/01 05:21:15;;;;;;;2.17;2.08;;;0.60;95.90;;;;;;5096483;28;20258;-68
2023/03/01 05:23:42;;;;;;;0.75;0.75;;;0.50;95.90;;;;;;5096421;28;20192;-69
2023/03/01 05:26:08;;;;;;;2.28;2.17;;;0.50;95.80;;;;;;5096225;28;20236;-69
2023/03/01 05:28:35;;;;;;;5.55;5.25;;;0.60;95.70;;;;;;5096054;28;20201;-69
2023/03/01 05:31:01;;;;;;;5.78;3.70;;;0.70;95.20;;;;;;5096467;28;20166;-69
2023/03/01 05:33:27;;;;;;;1.48;1.48;;;0.60;95.30;;;;;;5095234;28;20179;-68
2023/03/01 05:35:53;;;;;;;2.50;1.05;;;0.60;95.60;;;;;;5096014;28;20577;-69
2023/03/01 05:38:20;;;;;;;3.03;2.75;;;0.50;95.60;;;;;;5095812;28;20187;-69
2023/03/01 05:40:48;;;;;;;0.70;0.70;;;0.40;95.80;;;;;;5095813;28;20263;-69
2023/03/01 05:43:15;;;;;;;1.23;1.13;;;0.50;95.90;;;;;;5095906;28;20182;-69
2023/03/01 05:45:42;;;;;;;1.35;1.35;;;0.30;95.60;;;;;;5095932;28;20177;-69
2023/03/01 05:48:10;;;;;;;2.63;2.50;;;0.30;96.30;;;;;;5095572;28;20305;-69
2023/03/01 05:50:39;;;;;;;0.93;0.93;;;0.30;96.40;;;;;;5095580;28;20554;-69
2023/03/01 05:53:16;;;;;;;1.08;1.02;;;0.50;96.20;;;;;;5095682;28;20184;-69
2023/03/01 05:55:43;;;;;;;0.98;0.85;;;0.40;95.70;;;;;;5095692;28;20699;-68
2023/03/01 05:58:13;;;;;;;0.40;0.40;;;0.20;95.90;;;;;;5095628;28;20550;-68
2023/03/01 06:00:40;;;;;;;3.20;2.20;;;-0.10;96.30;;;;;;5095588;28;20149;-68
2023/03/01 06:03:05;;;;;;;5.50;1.08;;;-0.30;96.90;;;;;;5095443;28;20252;-70
2023/03/01 06:05:32;;;;;;;1.73;1.63;;;-0.20;97.30;;;;;;5095562;28;20251;-68
2023/03/01 06:08:01;;;;;;;0.40;0.40;;;-0.20;97.20;;;;;;5095459;28;20723;-69
2023/03/01 06:10:27;;;;;;;0.70;0.70;;;-0.20;97.00;;;;;;5095234;28;20599;-69
2023/03/01 06:12:53;;;;;;;0.40;0.40;;;0.00;97.10;;;;;;5095354;28;20169;-68
2023/03/01 06:15:19;;;;;;;1.42;1.42;;;-0.10;96.80;;;;;;5095164;28;20177;-69
2023/03/01 06:17:45;;;;;;;0.40;0.40;;;-0.10;96.90;;;;;;5095376;28;20158;-68
2023/03/01 06:20:16;;;;;;;0.70;0.70;;;-0.40;97.30;;;;;;5095041;28;20178;-69
2023/03/01 06:22:42;;;;;;;2.00;1.80;;;-0.40;97.40;;;;;;5095256;28;20178;-68
2023/03/01 06:25:08;;;;;;;2.05;1.35;;;-0.50;97.80;;;;;;5095143;28;20195;-68
2023/03/01 06:27:35;;;;;;;0.60;0.60;;;-0.60;98.00;;;;;;5095097;28;20265;-68
2023/03/01 06:30:01;;;;;;;0.30;0.30;;;-0.40;98.20;;;;;;5094535;28;20209;-69
2023/03/01 06:32:27;;;;;;;0.50;0.50;;;-0.20;97.90;;;;;;5094911;28;20277;-68
2023/03/01 06:34:52;;;;;;;2.47;1.13;;;-0.20;97.40;;;;;;5095035;28;20181;-68
2023/03/01 06:37:18;;;;;;;0.70;0.60;;;-0.40;97.70;;;;;;5094854;28;20404;-69
2023/03/01 06:39:43;;;;;;;2.10;1.57;;;-0.20;97.90;;;;;;5094475;28;20562;-68
2023/03/01 06:42:09;;;;;;;1.37;1.37;;;-0.20;97.60;;;;;;5094823;28;20181;-68
2023/03/01 06:44:36;;;;;;;1.20;1.15;;;-0.30;97.60;;;;;;5095039;28;20166;-69
2023/03/01 06:47:02;;;;;;;2.78;2.50;;;-0.20;97.70;;;;;;5094410;28;20325;-68
2023/03/01 06:49:27;;;;;;;15.52;2.78;;;-0.30;97.50;;;;;;5094301;28;20200;-69
2023/03/01 06:51:53;;;;;;;3.57;2.87;;;-0.60;97.70;;;;;;5094579;28;20169;-70
2023/03/01 06:54:21;;;;;;;0.40;0.40;;;-0.60;98.20;;;;;;5094746;28;20552;-68
2023/03/01 06:56:48;;;;;;;3.65;3.47;;;-0.30;98.40;;;;;;5092968;28;20998;-69
2023/03/01 06:59:13;;;;;;;2.88;2.78;;;0.00;98.00;;;;;;5094065;28;20284;-69
2023/03/01 07:01:39;;;;;;;3.77;3.23;;;0.30;97.60;;;;;;5094112;28;20311;-69
2023/03/01 07:04:05;;;;;;;5.17;4.77;;;0.50;97.20;;;;;;5094401;28;20411;-69
2023/03/01 07:06:31;;;;;;;2.70;2.57;;;0.60;97.00;;;;;;5094324;28;20867;-68
2023/03/01 07:08:56;;;;;;;1.23;1.13;;;0.80;96.80;;;;;;5093849;28;20199;-69
2023/03/01 07:11:23;;;;;;;2.03;1.93;;;0.90;96.00;;;;;;5093007;28;20170;-69
2023/03/01 07:13:48;;;;;;;0.90;0.90;;;1.00;95.30;;;;;;5094065;28;20166;-70
2023/03/01 07:16:14;;;;;;;1.60;1.53;;;0.80;94.90;;;;;;5094254;28;20523;-70
2023/03/01 07:18:40;;;;;;;1.70;1.60;;;0.60;95.20;;;;;;5093988;28;20240;-69
2023/03/01 07:21:11;;;;;;;2.40;2.33;;;0.60;95.80;;;;;;5094109;28;20451;-70
2023/03/01 07:23:37;;;;;;;1.08;1.08;;;0.80;96.00;;;;;;5094130;28;20231;-68
2023/03/01 07:26:03;;;;;;;0.70;0.70;;;0.80;95.40;;;;;;5093859;28;20174;-69
2023/03/01 07:28:29;;;;;;;1.27;1.27;;;0.70;95.20;;;;;;5093649;28;20248;-69
2023/03/01 07:30:55;;;;;;;0.93;0.93;;;0.80;95.60;;;;;;5093684;28;20410;-69
2023/03/01 07:33:20;;;;;;;0.60;0.60;;;0.80;95.50;;;;;;5093823;28;20176;-69
2023/03/01 07:35:46;;;;;;;0.83;0.83;;;0.70;95.20;;;;;;5093834;28;20404;-69
2023/03/01 07:38:12;;;;;;;1.60;1.57;;;0.60;95.50;;;;;;5093669;28;20427;-70
2023/03/01 07:40:37;;;;;;;1.90;1.90;;;0.40;95.90;;;;;;5093423;28;20177;-69
2023/03/01 07:43:03;;;;;;;3.47;3.30;;;0.50;96.10;;;;;;5093813;28;20182;-69
2023/03/01 07:45:29;;;;;;;0.70;0.70;;;0.30;95.90;;;;;;5093575;28;20187;-68
2023/03/01 07:47:55;;;;;;;2.10;1.05;;;0.30;96.60;;;;;;5093283;28;20197;-68
2023/03/01 07:50:22;;;;;;;0.43;0.43;;;0.30;96.40;;;;;;5093374;28;20204;-70
2023/03/01 07:52:49;;;;;;;0.60;0.60;;;0.30;96.70;;;;;;5093649;28;20199;-68
2023/03/01 07:55:16;;;;;;;4.25;3.45;;;0.40;96.50;;;;;;5093335;28;20248;-70
2023/03/01 07:57:41;;;;;;;2.17;1.98;;;0.60;96.00;;;;;;5092959;28;20242;-69
2023/03/01 08:00:10;;;;;;;1.57;1.50;;;0.60;95.50;;;;;;5093277;28;20265;-69
2023/03/01 08:02:35;;;;;;;1.15;1.15;;;0.50;95.40;;;;;;5093409;28;20170;-69
2023/03/01 08:05:01;;;;;;;1.03;1.03;;;0.50;95.80;;;;;;5093542;28;20230;-68
2023/03/01 08:07:27;;;;;;;1.00;1.00;;;0.30;96.00;;;;;;5093437;28;20618;-69
2023/03/01 08:09:52;;;;;;;1.10;1.10;;;0.20;96.20;;;;;;5092918;28;20210;-71
2023/03/01 08:12:18;;;;;;;0.90;0.90;;;0.30;96.60;;;;;;5092096;28;20175;-69
2023/03/01 08:14:44;;;;;;;1.75;1.05;;;0.30;96.50;;;;;;5093359;28;20178;-68
2023/03/01 08:17:10;;;;;;;4.85;2.22;;;0.40;96.50;;;;;;5092025;28;20665;-69
2023/03/01 08:19:36;;;;;;;12.00;1.77;;;0.50;96.20;;;;;;5093018;28;20203;-69
2023/03/01 08:22:02;;;;;;;1.20;0.77;;;0.60;96.00;;;;;;5092270;28;20182;-69
2023/03/01 08:24:28;;;;;;;1.02;1.02;;;0.80;96.10;;;;;;5091613;28;20175;-69
2023/03/01 08:26:55;;;;;;;3.13;2.93;;;1.10;95.40;;;;;;5093066;28;20525;-69
2023/03/01 08:29:21;;;;;;;2.83;2.67;;;1.20;94.60;;;;;;5092968;28;20452;-69
2023/03/01 08:31:47;;;;;;;0.50;0.50;;;0.90;95.30;;;;;;5093225;28;20536;-68
2023/03/01 08:34:16;;;;;;;6.75;1.50;;;0.90;95.10;;;;;;5093021;28;20178;-69
2023/03/01 08:36:44;;;;;;;1.52;1.42;;;0.90;95.80;;;;;;5093104;28;20171;-69
2023/03/01 08:39:12;;;;;;;3.30;3.05;;;1.00;95.20;;;;;;5092620;28;20269;-69
2023/03/01 08:41:38;;;;;;;3.97;3.75;;;0.90;95.00;;;;;;5093034;28;20264;-69
2023/03/01 08:44:03;;;;;;;1.60;1.60;;;0.90;95.20;;;;;;5093064;28;20206;-69
2023/03/01 08:46:33;;;;;;;0.50;0.50;;;0.40;95.30;;;;;;5092965;28;20179;-70
2023/03/01 08:48:58;;;;;;;1.33;1.30;;;0.20;96.30;;;;;;5092724;28;20459;-68
2023/03/01 08:51:25;;;;;;;1.67;1.57;;;-0.10;96.70;;;;;;5093006;28;20166;-70
2023/03/01 08:53:51;;;;;;;1.63;1.52;;;-0.10;97.20;;;;;;5092874;28;20165;-70
2023/03/01 08:56:18;;;;;;;0.60;0.60;;;-0.10;97.40;;;;;;5093072;28;20560;-70
2023/03/01 08:58:48;;;;;;;1.23;1.23;;;-0.10;97.50;;;;;;5092719;28;20471;-68
2023/03/01 09:01:17;;;;;;;2.08;1.90;;;0.20;98.00;;;;;;5093287;28;20669;-69
2023/03/01 09:03:43;;;;;;;1.88;1.77;;;0.40;96.70;;;;;;5092878;28;20166;-70
2023/03/01 09:06:09;;;;;;;0.50;0.50;;;0.20;96.50;;;;;;5093020;28;20175;-70
2023/03/01 09:08:39;;;;;;;1.13;1.13;;;0.20;96.80;;;;;;5093959;28;20696;-70
2023/03/01 09:11:07;;;;;;;0.88;0.88;;;0.20;96.80;;;;;;5096653;28;20174;-69
2023/03/01 09:13:34;;;;;;;3.65;2.58;;;0.10;96.60;;;;;;5096993;28;20627;-69
2023/03/01 09:16:02;;;;;;;0.40;0.40;;;0.20;97.30;;;;;;5096846;28;20628;-67
2023/03/01 09:18:28;;;;;;;3.72;2.38;;;0.70;97.50;;;;;;5096784;28;20189;-69
2023/03/01 09:21:01;;;;;;;1.15;1.05;;;1.00;96.20;;;;;;5095165;28;20336;-69
2023/03/01 09:23:27;;;;;;;3.60;3.25;;;1.10;95.60;;;;;;5096440;28;20234;-68
2023/03/01 09:25:53;;;;;;;1.70;0.73;;;1.30;95.50;;;;;;5096776;28;20258;-69
2023/03/01 09:28:18;;;;;;;2.23;1.73;;;1.60;95.60;;;;;;5096609;28;20195;-70
2023/03/01 09:30:44;;;;;;;1.67;1.67;;;1.90;94.80;;;;;;5095794;28;20687;-72
2023/03/01 09:33:14;;;;;;;1.87;1.87;;;1.90;94.00;;;;;;5096044;28;20163;-70
2023/03/01 09:35:45;;;;;;;1.58;0.70;;;2.00;94.00;;;;;;5095979;28;20238;-72
2023/03/01 09:38:11;;;;;;;0.80;0.80;;;2.00;93.20;;;;;;5096192;28;20187;-70
2023/03/01 09:40:42;;;;;;;1.70;1.65;;;1.80;93.10;;;;;;5096276;28;20583;-69
2023/03/01 09:43:59;;;;;;;1.13;1.13;;;1.40;93.30;;;;;;5096289;28;20186;-71
2023/03/01 09:46:26;;;;;;;10.75;4.43;;;1.20;93.80;;;;;;5091277;28;20177;-68
2023/03/01 09:48:57;;;;;;;1.98;1.98;;;0.90;94.50;;;;;;5095298;28;20221;-71
2023/03/01 09:51:32;;;;;;;0.90;0.90;;;0.70;95.20;;;;;;5096197;28;20175;-72
2023/03/01 09:54:00;;;;;;;3.22;2.75;;;0.80;95.20;;;;;;5095858;28;20177;-69
2023/03/01 09:56:41;;;;;;;2.70;1.13;;;0.70;95.40;;;;;;5095880;28;20220;-71
2023/03/01 09:59:30;;;;;;;1.90;1.80;;;1.00;95.70;;;;;;5095619;28;20194;-72
2023/03/01 10:01:55;;;;;;;1.67;1.55;;;1.30;95.30;;;;;;5096009;28;20195;-72
2023/03/01 10:04:47;;;;;;;1.20;1.20;;;1.50;95.00;;;;;;5095658;28;20186;-70
2023/03/01 10:07:36;;;;;;;4.35;3.45;;;1.50;94.00;;;;;;5092683;28;20187;-71
2023/03/01 10:10:07;;;;;;;1.35;1.25;;;1.40;94.20;;;;;;5095244;28;20195;-70
2023/03/01 10:12:40;;;;;;;2.20;2.10;;;1.60;94.70;;;;;;5095308;28;20167;-70
2023/03/01 10:15:16;;;;;;;1.40;1.40;;;1.90;94.60;;;;;;5095604;28;20176;-71
2023/03/01 10:17:48;;;;;;;1.67;1.67;;;2.20;94.00;;;;;;5095246;28;20171;-69
2023/03/01 10:20:29;;;;;;;6.13;3.53;;;2.50;93.40;;;;;;5094575;28;20175;-70
2023/03/01 10:22:55;;;;;;;0.95;0.95;;;2.60;93.40;;;;;;5094514;28;20169;-74
2023/03/01 10:25:50;;;;;;;1.70;1.70;;;2.70;92.70;;;;;;5095126;28;20682;-71
2023/03/01 10:28:28;;;;;;;3.30;3.05;;;2.70;92.00;;;;;;5094640;28;20673;-70
2023/03/01 10:30:54;;;;;;;3.35;3.15;;;2.50;92.10;;;;;;5093936;28;20227;-70
2023/03/01 10:33:27;;;;;;;5.13;2.90;;;2.50;92.30;;;;;;5095518;28;20626;-69
2023/03/01 10:35:53;;;;;;;2.05;1.98;;;2.50;92.60;;;;;;5095011;28;20193;-70
2023/03/01 10:38:22;;;;;;;2.10;1.90;;;2.40;92.50;;;;;;5094967;28;20576;-71
2023/03/01 10:40:54;;;;;;;1.42;1.42;;;2.20;92.70;;;;;;5094986;28;20522;-72
2023/03/01 10:43:21;;;;;;;3.72;3.38;;;2.50;92.60;;;;;;5094939;28;20169;-69
2023/03/01 10:45:47;;;;;;;3.50;3.03;;;2.60;92.20;;;;;;5095094;28;20181;-70
2023/03/01 10:48:14;;;;;;;2.35;1.60;;;2.50;92.40;;;;;;5094765;28;20614;-69
2023/03/01 10:50:42;;;;;;;1.20;1.20;;;2.70;92.80;;;;;;5094328;28;20562;-72
2023/03/01 10:53:24;;;;;;;4.38;4.13;;;2.60;92.10;;;;;;5094960;28;20497;-70
2023/03/01 10:56:03;;;;;;;3.45;3.25;;;2.50;92.20;;;;;;5093627;28;20168;-72
2023/03/01 10:58:29;;;;;;;4.90;2.90;;;2.50;92.10;;;;;;5095035;28;20185;-70
2023/03/01 11:01:01;;;;;;;3.33;2.97;;;2.50;92.00;;;;;;5093015;28;20616;-68
2023/03/01 11:03:37;;;;;;;4.63;3.13;;;2.10;92.80;;;;;;5094608;28;20177;-72
2023/03/01 11:06:21;;;;;;;5.20;2.65;;;2.30;92.70;;;;;;5094702;28;20183;-70
2023/03/01 11:08:49;;;;;;;1.58;1.48;;;2.50;92.50;;;;;;5093197;28;20192;-70
2023/03/01 11:11:52;;;;;;;1.40;1.40;;;2.90;92.20;;;;;;5094362;28;20281;-70
2023/03/01 11:14:22;;;;;;;1.13;1.13;;;2.90;91.60;;;;;;5061882;28;20677;-69
2023/03/01 11:16:57;;;;;;;3.85;3.75;;;3.10;91.70;;;;;;5094360;28;20519;-69
2023/03/01 11:19:23;;;;;;;1.27;1.17;;;3.40;91.10;;;;;;5093267;28;20332;-69
2023/03/01 11:22:19;;;;;;;4.10;3.75;;;3.50;91.00;;;;;;5093976;28;20520;-69
2023/03/01 11:24:51;;;;;;;2.28;2.13;;;3.50;90.60;;;;;;5093629;28;20164;-70
2023/03/01 11:27:32;;;;;;;1.90;1.40;;;3.00;91.00;;;;;;5094504;28;20180;-68
2023/03/01 11:30:13;;;;;;;3.33;2.47;;;3.20;91.80;;;;;;5092044;28;20200;-69
2023/03/01 11:32:48;;;;;;;3.78;3.50;;;3.00;90.90;;;;;;5092095;28;20197;-70
2023/03/01 11:35:25;;;;;;;1.58;1.30;;;2.80;90.90;;;;;;5092629;28;20214;-69
2023/03/01 11:38:12;;;;;;;1.15;1.13;;;2.80;91.00;;;;;;5091218;28;20177;-69
2023/03/01 11:40:46;;;;;;;1.00;1.00;;;2.90;91.20;;;;;;5092418;28;20165;-69
2023/03/01 11:43:28;;;;;;;2.25;1.77;;;3.00;90.90;;;;;;5092521;28;20180;-69
2023/03/01 11:46:25;;;;;;;0.60;0.60;;;3.00;90.90;;;;;;5093834;28;20173;-69
2023/03/01 11:49:14;;;;;;;13.05;3.97;;;3.10;91.10;;;;;;5084691;28;20228;-69
2023/03/01 11:51:52;;;;;;;1.60;1.60;;;3.30;91.40;;;;;;5093749;28;20613;-69
2023/03/01 11:54:35;;;;;;;5.05;4.63;;;3.30;90.70;;;;;;5093664;28;20176;-70
2023/03/01 11:57:33;;;;;;;13.02;3.63;;;3.60;90.90;;;;;;5093475;28;20239;-69
2023/03/01 12:00:20;;;;;;;2.42;2.33;;;3.70;90.00;;;;;;5082957;28;20741;-68
2023/03/01 12:03:23;;;;;;;3.70;3.22;;;3.90;89.80;;;;;;5093423;28;20168;-68
2023/03/01 12:06:05;;;;;;;1.75;1.70;;;4.00;88.80;;;;;;5070992;28;20188;-68
2023/03/01 12:08:47;;;;;;;3.25;2.17;;;4.00;88.90;;;;;;5093432;28;20633;-69
2023/03/01 12:11:48;;;;;;;1.77;1.67;;;3.90;89.70;;;;;;5093550;28;20241;-69
2023/03/01 12:14:26;;;;;;;2.78;2.67;;;4.10;89.70;;;;;;5093406;28;20232;-69
2023/03/01 12:17:19;;;;;;;4.43;3.92;;;4.30;88.50;;;;;;5093380;28;20542;-69
2023/03/01 12:19:50;;;;;;;5.70;2.67;;;4.40;87.90;;;;;;5092939;28;20196;-69
2023/03/01 12:22:52;;;;;;;7.75;2.97;;;4.30;87.00;;;;;;5091934;28;20656;-69
2023/03/01 12:25:39;;;;;;;0.85;0.85;;;4.30;87.70;;;;;;5093545;28;20176;-69
2023/03/01 12:28:43;;;;;;;3.15;3.05;;;4.20;87.40;;;;;;5093307;28;20188;-69
2023/03/01 12:31:36;;;;;;;2.63;1.85;;;4.20;88.60;;;;;;5090261;28;20205;-69
2023/03/01 12:34:08;;;;;;;2.22;2.13;;;4.30;87.00;;;;;;5093119;28;20196;-69
2023/03/01 12:37:11;;;;;;;4.00;2.67;;;4.20;87.40;;;;;;5093070;28;20169;-69
2023/03/01 12:39:51;;;;;;;14.30;2.75;;;4.10;88.10;;;;;;5092874;28;20220;-69
2023/03/01 12:42:38;;;;;;;4.75;2.17;;;4.20;87.90;;;;;;5094213;28;20172;-69
2023/03/01 12:45:41;;;;;;;3.33;1.75;;;4.30;88.10;;;;;;5097244;28;20664;-68
2023/03/01 12:48:28;;;;;;;9.75;3.70;;;4.30;87.90;;;;;;5096737;28;20201;-69
2023/03/01 12:50:59;;;;;;;5.22;3.47;;;4.20;87.40;;;;;;5095585;28;20295;-70
2023/03/01 12:53:35;;;;;;;3.17;1.55;;;4.30;88.00;;;;;;5095601;28;20165;-71
2023/03/01 12:56:13;;;;;;;2.58;2.47;;;4.30;87.70;;;;;;5096806;28;20251;-69
2023/03/01 12:59:09;;;;;;;2.13;1.98;;;4.30;88.40;;;;;;5096783;28;20609;-69
2023/03/01 13:01:59;;;;;;;4.15;3.85;;;4.40;87.60;;;;;;5096947;28;20153;-69
2023/03/01 13:04:48;;;;;;;2.08;1.75;;;4.50;86.70;;;;;;5096916;28;20161;-69
2023/03/01 13:07:24;;;;;;;2.03;1.92;;;4.70;86.40;;;;;;5096731;28;20172;-69
2023/03/01 13:10:08;;;;;;;2.97;2.47;;;4.90;85.20;;;;;;5096226;28;20226;-69
2023/03/01 13:12:48;;;;;;;2.58;2.35;;;5.00;86.70;;;;;;5096790;28;20164;-69